EGTE/EXT METAR and TAF weather

Enter ICAO airport designator
Station Type Date Time Source
EGTE METAR 2024/05/28 23:50 UTC NOAA

EGTE 282350Z 23003KT 9999 -RA BKN018 13/12 Q1011


Station Type Date Time Source
EGTE Decoded METAR 2024/05/28 23:50 UTC NOAA

Exeter Airport, United Kingdom (EGTE) 50-44N 003-25W
May 28, 2024 - 07:50 PM EDT / 2024.05.28 2350 UTC
Wind: from the SW (230 degrees) at 3 MPH (3 KT):0
Visibility: greater than 7 mile(s):0
Sky conditions: mostly cloudy
Weather: light rain
Temperature: 55 F (13 C)
Dew Point: 53 F (12 C)
Relative Humidity: 93%
Pressure (altimeter): 29.85 in. Hg (1011 hPa)
ob: EGTE 282350Z 23003KT 9999 -RA BKN018 13/12 Q1011
cycle: 0

Station Type Date Time Source
EGTE TAF 2012/04/19 12:15 UTC NOAA